sensor_id;sensor_type;location;lat;lon;timestamp;temperature;humidity
19385;DHT22;9828;54.122;17.974;2023-06-19T00:02:43;16.80;99.90
19385;DHT22;9828;54.122;17.974;2023-06-19T00:08:04;16.70;1.00
19385;DHT22;9828;54.122;17.974;2023-06-19T00:13:27;16.80;99.90
19385;DHT22;9828;54.122;17.974;2023-06-19T00:18:48;16.80;1.00
19385;DHT22;9828;54.122;17.974;2023-06-19T00:24:10;16.60;1.00
19385;DHT22;9828;54.122;17.974;2023-06-19T00:29:32;16.60;1.00
19385;DHT22;9828;54.122;17.974;2023-06-19T00:34:54;16.80;11.70
19385;DHT22;9828;54.122;17.974;2023-06-19T00:51:13;16.00;1.00
19385;DHT22;9828;54.122;17.974;2023-06-19T00:56:37;16.10;1.00
19385;DHT22;9828;54.122;17.974;2023-06-19T01:02:01;15.60;99.90
19385;DHT22;9828;54.122;17.974;2023-06-19T01:07:46;16.00;99.90
19385;DHT22;9828;54.122;17.974;2023-06-19T01:13:36;16.00;99.90
19385;DHT22;9828;54.122;17.974;2023-06-19T01:18:58;15.90;24.50
19385;DHT22;9828;54.122;17.974;2023-06-19T01:24:20;15.90;99.90
19385;DHT22;9828;54.122;17.974;2023-06-19T01:29:41;15.90;99.90
19385;DHT22;9828;54.122;17.974;2023-06-19T01:35:04;15.80;99.90
19385;DHT22;9828;54.122;17.974;2023-06-19T01:40:28;15.70;1.00
19385;DHT22;9828;54.122;17.974;2023-06-19T01:45:52;15.90;1.00
19385;DHT22;9828;54.122;17.974;2023-06-19T01:51:14;15.90;99.90
19385;DHT22;9828;54.122;17.974;2023-06-19T01:56:37;15.90;1.00
19385;DHT22;9828;54.122;17.974;2023-06-19T02:01:58;15.90;62.70
19385;DHT22;9828;54.122;17.974;2023-06-19T02:07:22;15.80;33.00
19385;DHT22;9828;54.122;17.974;2023-06-19T02:12:43;15.70;1.00
19385;DHT22;9828;54.122;17.974;2023-06-19T04:43:41;16.70;99.90
19385;DHT22;9828;54.122;17.974;2023-06-19T05:05:20;17.10;99.90
19385;DHT22;9828;54.122;17.974;2023-06-19T05:21:33;17.40;99.90
19385;DHT22;9828;54.122;17.974;2023-06-19T06:20:57;19.30;99.90
19385;DHT22;9828;54.122;17.974;2023-06-19T06:26:20;19.50;99.90
19385;DHT22;9828;54.122;17.974;2023-06-19T06:31:46;19.80;99.90
19385;DHT22;9828;54.122;17.974;2023-06-19T06:37:07;20.10;99.90
19385;DHT22;9828;54.122;17.974;2023-06-19T06:42:29;20.50;99.90
19385;DHT22;9828;54.122;17.974;2023-06-19T06:47:51;21.00;99.90
19385;DHT22;9828;54.122;17.974;2023-06-19T06:53:12;21.40;99.90
19385;DHT22;9828;54.122;17.974;2023-06-19T06:58:33;21.90;99.90
19385;DHT22;9828;54.122;17.974;2023-06-19T07:03:54;22.60;1.00
19385;DHT22;9828;54.122;17.974;2023-06-19T07:09:16;23.20;1.00
19385;DHT22;9828;54.122;17.974;2023-06-19T07:14:37;23.70;1.00
19385;DHT22;9828;54.122;17.974;2023-06-19T07:19:59;24.10;1.00
19385;DHT22;9828;54.122;17.974;2023-06-19T07:25:20;24.50;1.00
19385;DHT22;9828;54.122;17.974;2023-06-19T07:30:45;24.70;1.00
19385;DHT22;9828;54.122;17.974;2023-06-19T07:36:09;25.20;1.00
19385;DHT22;9828;54.122;17.974;2023-06-19T07:41:35;25.30;99.90
19385;DHT22;9828;54.122;17.974;2023-06-19T07:46:57;25.60;99.90
19385;DHT22;9828;54.122;17.974;2023-06-19T07:52:18;25.70;99.90
19385;DHT22;9828;54.122;17.974;2023-06-19T07:57:39;26.40;99.90
19385;DHT22;9828;54.122;17.974;2023-06-19T08:03:00;26.20;99.90
19385;DHT22;9828;54.122;17.974;2023-06-19T08:08:23;25.40;99.90
19385;DHT22;9828;54.122;17.974;2023-06-19T08:13:44;24.70;99.90
19385;DHT22;9828;54.122;17.974;2023-06-19T08:19:05;24.30;99.90
19385;DHT22;9828;54.122;17.974;2023-06-19T08:24:27;24.40;99.90
19385;DHT22;9828;54.122;17.974;2023-06-19T08:29:48;24.30;99.90
19385;DHT22;9828;54.122;17.974;2023-06-19T08:35:09;25.60;99.90
19385;DHT22;9828;54.122;17.974;2023-06-19T08:40:31;26.80;99.90
19385;DHT22;9828;54.122;17.974;2023-06-19T08:46:09;26.90;99.90
19385;DHT22;9828;54.122;17.974;2023-06-19T08:51:31;26.40;99.90
19385;DHT22;9828;54.122;17.974;2023-06-19T08:56:59;26.50;99.90
19385;DHT22;9828;54.122;17.974;2023-06-19T09:02:21;26.70;99.90
19385;DHT22;9828;54.122;17.974;2023-06-19T09:07:43;27.60;99.90
19385;DHT22;9828;54.122;17.974;2023-06-19T09:13:04;28.20;99.90
19385;DHT22;9828;54.122;17.974;2023-06-19T09:18:26;28.50;99.90
19385;DHT22;9828;54.122;17.974;2023-06-19T09:23:48;28.10;99.90
19385;DHT22;9828;54.122;17.974;2023-06-19T09:29:18;28.70;99.90
19385;DHT22;9828;54.122;17.974;2023-06-19T09:34:41;28.90;99.90
19385;DHT22;9828;54.122;17.974;2023-06-19T09:40:04;29.30;99.90
19385;DHT22;9828;54.122;17.974;2023-06-19T09:45:32;28.60;99.90
19385;DHT22;9828;54.122;17.974;2023-06-19T09:51:02;28.40;99.90
19385;DHT22;9828;54.122;17.974;2023-06-19T09:56:25;28.40;99.90
19385;DHT22;9828;54.122;17.974;2023-06-19T10:01:49;28.50;99.90
19385;DHT22;9828;54.122;17.974;2023-06-19T10:12:44;27.90;99.90
19385;DHT22;9828;54.122;17.974;2023-06-19T10:18:06;28.10;99.90
19385;DHT22;9828;54.122;17.974;2023-06-19T10:23:28;28.80;99.90
19385;DHT22;9828;54.122;17.974;2023-06-19T10:28:49;29.40;99.90
19385;DHT22;9828;54.122;17.974;2023-06-19T10:34:11;29.80;99.90
19385;DHT22;9828;54.122;17.974;2023-06-19T10:39:32;30.00;99.90
19385;DHT22;9828;54.122;17.974;2023-06-19T10:45:02;30.10;99.90
19385;DHT22;9828;54.122;17.974;2023-06-19T10:50:24;29.90;99.90
19385;DHT22;9828;54.122;17.974;2023-06-19T10:55:46;30.10;99.90
19385;DHT22;9828;54.122;17.974;2023-06-19T11:01:07;30.40;99.90
19385;DHT22;9828;54.122;17.974;2023-06-19T11:06:28;29.90;99.90
19385;DHT22;9828;54.122;17.974;2023-06-19T11:11:49;29.90;99.90
19385;DHT22;9828;54.122;17.974;2023-06-19T11:17:11;29.40;99.90
19385;DHT22;9828;54.122;17.974;2023-06-19T11:22:39;29.20;99.90
19385;DHT22;9828;54.122;17.974;2023-06-19T11:28:01;29.00;99.90
19385;DHT22;9828;54.122;17.974;2023-06-19T11:33:23;29.00;99.90
19385;DHT22;9828;54.122;17.974;2023-06-19T11:38:45;28.80;99.90
19385;DHT22;9828;54.122;17.974;2023-06-19T11:44:10;29.00;99.90
19385;DHT22;9828;54.122;17.974;2023-06-19T11:49:35;28.30;99.90
19385;DHT22;9828;54.122;17.974;2023-06-19T11:54:56;27.50;99.90
19385;DHT22;9828;54.122;17.974;2023-06-19T12:00:17;27.20;99.90
19385;DHT22;9828;54.122;17.974;2023-06-19T12:05:39;27.20;99.90
19385;DHT22;9828;54.122;17.974;2023-06-19T12:11:00;27.20;99.90
19385;DHT22;9828;54.122;17.974;2023-06-19T12:16:22;27.00;99.90
19385;DHT22;9828;54.122;17.974;2023-06-19T12:21:43;26.90;99.90
19385;DHT22;9828;54.122;17.974;2023-06-19T12:27:04;27.60;99.90
19385;DHT22;9828;54.122;17.974;2023-06-19T12:32:26;28.40;99.90
19385;DHT22;9828;54.122;17.974;2023-06-19T12:37:47;29.10;99.90
19385;DHT22;9828;54.122;17.974;2023-06-19T12:43:08;29.00;99.90
19385;DHT22;9828;54.122;17.974;2023-06-19T12:48:29;28.60;99.90
19385;DHT22;9828;54.122;17.974;2023-06-19T12:53:51;28.30;99.90
19385;DHT22;9828;54.122;17.974;2023-06-19T12:59:12;28.70;99.90
19385;DHT22;9828;54.122;17.974;2023-06-19T13:04:33;28.70;99.90
19385;DHT22;9828;54.122;17.974;2023-06-19T13:09:55;28.30;99.90
19385;DHT22;9828;54.122;17.974;2023-06-19T13:15:16;28.00;99.90
19385;DHT22;9828;54.122;17.974;2023-06-19T13:20:37;27.70;99.90
19385;DHT22;9828;54.122;17.974;2023-06-19T13:25:59;27.50;99.90
19385;DHT22;9828;54.122;17.974;2023-06-19T13:31:20;27.70;99.90
19385;DHT22;9828;54.122;17.974;2023-06-19T13:36:41;27.70;99.90
19385;DHT22;9828;54.122;17.974;2023-06-19T13:42:03;27.60;99.90
19385;DHT22;9828;54.122;17.974;2023-06-19T13:47:24;27.60;99.90
19385;DHT22;9828;54.122;17.974;2023-06-19T13:52:46;27.80;99.90
19385;DHT22;9828;54.122;17.974;2023-06-19T13:58:08;27.70;99.90
19385;DHT22;9828;54.122;17.974;2023-06-19T14:03:29;27.70;99.90
19385;DHT22;9828;54.122;17.974;2023-06-19T14:08:51;28.10;99.90
19385;DHT22;9828;54.122;17.974;2023-06-19T14:14:13;28.00;99.90
19385;DHT22;9828;54.122;17.974;2023-06-19T14:19:34;27.80;99.90
19385;DHT22;9828;54.122;17.974;2023-06-19T14:24:55;27.60;99.90
19385;DHT22;9828;54.122;17.974;2023-06-19T14:30:20;27.30;99.90
19385;DHT22;9828;54.122;17.974;2023-06-19T14:35:42;27.10;99.90
19385;DHT22;9828;54.122;17.974;2023-06-19T14:41:07;26.60;99.90
19385;DHT22;9828;54.122;17.974;2023-06-19T14:46:28;26.60;99.90
19385;DHT22;9828;54.122;17.974;2023-06-19T14:51:52;26.60;99.90
19385;DHT22;9828;54.122;17.974;2023-06-19T14:57:14;26.60;99.90
19385;DHT22;9828;54.122;17.974;2023-06-19T15:02:35;26.50;99.90
19385;DHT22;9828;54.122;17.974;2023-06-19T15:13:21;26.20;99.90
19385;DHT22;9828;54.122;17.974;2023-06-19T15:18:43;26.20;99.90
19385;DHT22;9828;54.122;17.974;2023-06-19T15:24:04;26.20;99.90
19385;DHT22;9828;54.122;17.974;2023-06-19T15:29:25;26.30;99.90
19385;DHT22;9828;54.122;17.974;2023-06-19T15:34:46;26.50;99.90
19385;DHT22;9828;54.122;17.974;2023-06-19T15:40:08;26.60;99.90
19385;DHT22;9828;54.122;17.974;2023-06-19T15:45:29;26.80;99.90
19385;DHT22;9828;54.122;17.974;2023-06-19T15:50:50;26.80;99.90
19385;DHT22;9828;54.122;17.974;2023-06-19T15:56:11;26.60;99.90
19385;DHT22;9828;54.122;17.974;2023-06-19T16:01:33;26.40;99.90
19385;DHT22;9828;54.122;17.974;2023-06-19T16:06:55;26.30;99.90
19385;DHT22;9828;54.122;17.974;2023-06-19T16:12:16;26.40;99.90
19385;DHT22;9828;54.122;17.974;2023-06-19T16:17:37;26.40;99.90
19385;DHT22;9828;54.122;17.974;2023-06-19T16:22:59;26.50;99.90
19385;DHT22;9828;54.122;17.974;2023-06-19T16:28:20;26.60;99.90
19385;DHT22;9828;54.122;17.974;2023-06-19T16:33:41;26.60;99.90
19385;DHT22;9828;54.122;17.974;2023-06-19T16:39:03;26.50;99.90
19385;DHT22;9828;54.122;17.974;2023-06-19T16:44:24;26.50;99.90
19385;DHT22;9828;54.122;17.974;2023-06-19T16:49:45;26.50;99.90
19385;DHT22;9828;54.122;17.974;2023-06-19T16:55:08;26.40;99.90
19385;DHT22;9828;54.122;17.974;2023-06-19T17:00:29;26.40;99.90
19385;DHT22;9828;54.122;17.974;2023-06-19T17:05:51;26.30;99.90
19385;DHT22;9828;54.122;17.974;2023-06-19T17:11:12;26.10;99.90
19385;DHT22;9828;54.122;17.974;2023-06-19T17:16:35;25.80;99.90
19385;DHT22;9828;54.122;17.974;2023-06-19T17:21:56;25.70;99.90
19385;DHT22;9828;54.122;17.974;2023-06-19T17:27:17;25.60;99.90
19385;DHT22;9828;54.122;17.974;2023-06-19T17:32:40;25.50;99.90
19385;DHT22;9828;54.122;17.974;2023-06-19T17:38:01;25.40;99.90
19385;DHT22;9828;54.122;17.974;2023-06-19T17:43:23;25.30;99.90
19385;DHT22;9828;54.122;17.974;2023-06-19T17:48:44;25.20;99.90
19385;DHT22;9828;54.122;17.974;2023-06-19T17:54:05;25.10;99.90
19385;DHT22;9828;54.122;17.974;2023-06-19T17:59:26;25.10;99.90
19385;DHT22;9828;54.122;17.974;2023-06-19T18:04:49;24.90;99.90
19385;DHT22;9828;54.122;17.974;2023-06-19T18:10:10;24.80;99.90
19385;DHT22;9828;54.122;17.974;2023-06-19T18:15:32;24.70;99.90
19385;DHT22;9828;54.122;17.974;2023-06-19T18:20:54;24.60;99.90
19385;DHT22;9828;54.122;17.974;2023-06-19T18:26:15;24.40;99.90
19385;DHT22;9828;54.122;17.974;2023-06-19T18:31:37;24.30;1.00
19385;DHT22;9828;54.122;17.974;2023-06-19T18:36:59;24.20;1.00
19385;DHT22;9828;54.122;17.974;2023-06-19T18:42:20;24.10;1.00
19385;DHT22;9828;54.122;17.974;2023-06-19T18:47:42;24.00;1.00
19385;DHT22;9828;54.122;17.974;2023-06-19T18:53:03;23.90;1.00
19385;DHT22;9828;54.122;17.974;2023-06-19T18:58:24;23.80;1.00
19385;DHT22;9828;54.122;17.974;2023-06-19T19:03:45;23.60;1.00
19385;DHT22;9828;54.122;17.974;2023-06-19T19:09:06;23.50;16.20
19385;DHT22;9828;54.122;17.974;2023-06-19T19:14:28;23.40;99.90
19385;DHT22;9828;54.122;17.974;2023-06-19T19:19:49;23.30;99.90
19385;DHT22;9828;54.122;17.974;2023-06-19T19:25:11;23.20;99.90
19385;DHT22;9828;54.122;17.974;2023-06-19T19:30:32;23.10;99.90
19385;DHT22;9828;54.122;17.974;2023-06-19T19:35:54;22.90;1.00
19385;DHT22;9828;54.122;17.974;2023-06-19T19:41:15;22.80;1.00
19385;DHT22;9828;54.122;17.974;2023-06-19T19:46:38;22.70;1.00
19385;DHT22;9828;54.122;17.974;2023-06-19T19:52:01;22.60;1.00
19385;DHT22;9828;54.122;17.974;2023-06-19T19:57:22;22.50;1.00
19385;DHT22;9828;54.122;17.974;2023-06-19T20:02:44;22.30;1.00
19385;DHT22;9828;54.122;17.974;2023-06-19T20:08:05;22.20;1.00
19385;DHT22;9828;54.122;17.974;2023-06-19T20:13:27;22.20;1.00
19385;DHT22;9828;54.122;17.974;2023-06-19T20:18:48;22.10;1.00
19385;DHT22;9828;54.122;17.974;2023-06-19T20:24:10;22.10;99.90
19385;DHT22;9828;54.122;17.974;2023-06-19T20:29:31;22.00;99.90
19385;DHT22;9828;54.122;17.974;2023-06-19T20:34:52;21.90;99.90
19385;DHT22;9828;54.122;17.974;2023-06-19T20:40:13;21.90;99.90
19385;DHT22;9828;54.122;17.974;2023-06-19T20:45:34;21.80;99.90
19385;DHT22;9828;54.122;17.974;2023-06-19T20:50:56;21.70;99.90
19385;DHT22;9828;54.122;17.974;2023-06-19T20:56:18;21.70;99.90
19385;DHT22;9828;54.122;17.974;2023-06-19T21:01:39;21.70;99.90
19385;DHT22;9828;54.122;17.974;2023-06-19T21:07:00;21.70;99.90
19385;DHT22;9828;54.122;17.974;2023-06-19T21:12:22;21.60;99.90
19385;DHT22;9828;54.122;17.974;2023-06-19T21:17:42;21.60;99.90
19385;DHT22;9828;54.122;17.974;2023-06-19T21:23:04;21.60;99.90
19385;DHT22;9828;54.122;17.974;2023-06-19T21:28:25;21.50;99.90
19385;DHT22;9828;54.122;17.974;2023-06-19T21:33:46;21.50;99.90
19385;DHT22;9828;54.122;17.974;2023-06-19T21:39:07;21.40;99.90
19385;DHT22;9828;54.122;17.974;2023-06-19T21:44:28;21.40;99.90
19385;DHT22;9828;54.122;17.974;2023-06-19T21:49:49;21.40;99.90
19385;DHT22;9828;54.122;17.974;2023-06-19T21:55:10;21.30;99.90
19385;DHT22;9828;54.122;17.974;2023-06-19T22:00:32;21.20;99.90
19385;DHT22;9828;54.122;17.974;2023-06-19T22:05:53;21.20;99.90
19385;DHT22;9828;54.122;17.974;2023-06-19T22:11:15;21.10;1.00
19385;DHT22;9828;54.122;17.974;2023-06-19T22:16:36;21.10;1.00
19385;DHT22;9828;54.122;17.974;2023-06-19T22:32:42;20.70;95.70
19385;DHT22;9828;54.122;17.974;2023-06-19T22:38:03;20.50;99.90
19385;DHT22;9828;54.122;17.974;2023-06-19T22:43:25;20.40;1.00
19385;DHT22;9828;54.122;17.974;2023-06-19T22:48:46;20.40;99.90
19385;DHT22;9828;54.122;17.974;2023-06-19T22:54:11;20.30;1.00
19385;DHT22;9828;54.122;17.974;2023-06-19T22:59:32;20.30;99.90
19385;DHT22;9828;54.122;17.974;2023-06-19T23:04:54;20.30;77.00
19385;DHT22;9828;54.122;17.974;2023-06-19T23:10:16;20.30;99.90
19385;DHT22;9828;54.122;17.974;2023-06-19T23:15:38;20.30;1.00
19385;DHT22;9828;54.122;17.974;2023-06-19T23:20:59;20.40;1.00
19385;DHT22;9828;54.122;17.974;2023-06-19T23:26:21;20.30;1.00
19385;DHT22;9828;54.122;17.974;2023-06-19T23:31:44;20.30;1.00
19385;DHT22;9828;54.122;17.974;2023-06-19T23:37:05;20.00;1.00
19385;DHT22;9828;54.122;17.974;2023-06-19T23:42:27;20.10;1.00
19385;DHT22;9828;54.122;17.974;2023-06-19T23:47:48;20.10;1.00
19385;DHT22;9828;54.122;17.974;2023-06-19T23:53:09;20.10;1.00
19385;DHT22;9828;54.122;17.974;2023-06-19T23:58:31;20.00;99.90
